sensor_id;sensor_type;location;lat;lon;timestamp;pressure;altitude;pressure_sealevel;temperature;humidity
40650;BME280;26342;42.826;23.992;2023-07-20T00:01:46;95016.53;;;20.16;100.00
40650;BME280;26342;42.826;23.992;2023-07-20T00:04:13;95048.50;;;20.31;100.00
40650;BME280;26342;42.826;23.992;2023-07-20T00:06:38;95071.06;;;20.52;100.00
40650;BME280;26342;42.826;23.992;2023-07-20T00:09:05;95063.44;;;20.37;100.00
40650;BME280;26342;42.826;23.992;2023-07-20T00:11:31;95064.72;;;20.48;100.00
40650;BME280;26342;42.826;23.992;2023-07-20T00:13:56;95069.66;;;20.46;100.00
40650;BME280;26342;42.826;23.992;2023-07-20T00:16:21;95056.09;;;20.38;100.00
40650;BME280;26342;42.826;23.992;2023-07-20T00:18:47;95059.31;;;20.40;100.00
40650;BME280;26342;42.826;23.992;2023-07-20T00:21:12;95050.69;;;20.38;100.00
40650;BME280;26342;42.826;23.992;2023-07-20T00:23:38;95048.03;;;20.29;100.00
40650;BME280;26342;42.826;23.992;2023-07-20T00:26:03;95050.44;;;20.30;100.00
40650;BME280;26342;42.826;23.992;2023-07-20T00:28:28;95030.03;;;20.24;100.00
40650;BME280;26342;42.826;23.992;2023-07-20T00:30:54;95028.81;;;20.13;100.00
40650;BME280;26342;42.826;23.992;2023-07-20T00:33:19;95025.72;;;19.94;100.00
40650;BME280;26342;42.826;23.992;2023-07-20T00:35:45;95011.25;;;19.81;100.00
40650;BME280;26342;42.826;23.992;2023-07-20T00:38:10;94995.84;;;19.64;100.00
40650;BME280;26342;42.826;23.992;2023-07-20T00:40:40;94968.81;;;19.47;100.00
40650;BME280;26342;42.826;23.992;2023-07-20T00:43:06;94972.19;;;19.44;100.00
40650;BME280;26342;42.826;23.992;2023-07-20T00:45:33;94967.09;;;19.34;100.00
40650;BME280;26342;42.826;23.992;2023-07-20T00:47:59;94960.28;;;19.28;100.00
40650;BME280;26342;42.826;23.992;2023-07-20T00:50:26;94969.03;;;19.24;100.00
40650;BME280;26342;42.826;23.992;2023-07-20T00:52:51;94975.09;;;19.21;100.00
40650;BME280;26342;42.826;23.992;2023-07-20T00:55:18;94960.91;;;19.16;100.00
40650;BME280;26342;42.826;23.992;2023-07-20T00:57:44;94963.31;;;19.17;100.00
40650;BME280;26342;42.826;23.992;2023-07-20T01:00:10;94960.91;;;19.24;100.00
40650;BME280;26342;42.826;23.992;2023-07-20T01:02:35;94972.34;;;19.39;100.00
40650;BME280;26342;42.826;23.992;2023-07-20T01:05:02;94952.91;;;19.45;100.00
40650;BME280;26342;42.826;23.992;2023-07-20T01:07:35;94936.53;;;19.33;100.00
40650;BME280;26342;42.826;23.992;2023-07-20T01:12:43;94952.88;;;19.54;100.00
40650;BME280;26342;42.826;23.992;2023-07-20T01:15:11;94965.94;;;19.61;100.00
40650;BME280;26342;42.826;23.992;2023-07-20T01:17:37;94956.38;;;19.55;100.00
40650;BME280;26342;42.826;23.992;2023-07-20T01:20:03;94958.66;;;19.44;100.00
40650;BME280;26342;42.826;23.992;2023-07-20T01:31:10;94978.53;;;19.48;100.00
40650;BME280;26342;42.826;23.992;2023-07-20T01:33:36;94976.78;;;19.61;100.00
40650;BME280;26342;42.826;23.992;2023-07-20T01:36:03;94977.69;;;19.65;100.00
40650;BME280;26342;42.826;23.992;2023-07-20T01:38:29;94974.69;;;19.49;100.00
40650;BME280;26342;42.826;23.992;2023-07-20T01:40:55;94971.22;;;19.40;100.00
40650;BME280;26342;42.826;23.992;2023-07-20T01:43:22;94965.81;;;19.40;100.00
40650;BME280;26342;42.826;23.992;2023-07-20T01:45:47;94972.34;;;19.39;100.00
40650;BME280;26342;42.826;23.992;2023-07-20T01:48:13;94961.69;;;19.25;100.00
40650;BME280;26342;42.826;23.992;2023-07-20T01:50:38;94966.97;;;19.13;100.00
40650;BME280;26342;42.826;23.992;2023-07-20T01:53:04;94969.06;;;18.90;100.00
40650;BME280;26342;42.826;23.992;2023-07-20T01:55:29;94963.50;;;18.86;100.00
40650;BME280;26342;42.826;23.992;2023-07-20T01:57:55;94949.97;;;18.86;100.00
40650;BME280;26342;42.826;23.992;2023-07-20T02:00:21;94955.72;;;18.76;100.00
40650;BME280;26342;42.826;23.992;2023-07-20T02:02:49;94962.84;;;18.72;100.00
40650;BME280;26342;42.826;23.992;2023-07-20T02:05:15;94968.56;;;18.71;100.00
40650;BME280;26342;42.826;23.992;2023-07-20T02:07:40;94962.84;;;18.72;100.00
40650;BME280;26342;42.826;23.992;2023-07-20T02:10:06;94963.97;;;18.88;100.00
40650;BME280;26342;42.826;23.992;2023-07-20T02:12:31;94963.16;;;18.71;100.00
40650;BME280;26342;42.826;23.992;2023-07-20T02:14:57;94962.53;;;18.65;100.00
40650;BME280;26342;42.826;23.992;2023-07-20T02:17:22;94964.78;;;18.80;100.00
40650;BME280;26342;42.826;23.992;2023-07-20T02:19:52;94955.84;;;19.06;100.00
40650;BME280;26342;42.826;23.992;2023-07-20T02:22:17;94956.78;;;19.18;100.00
40650;BME280;26342;42.826;23.992;2023-07-20T02:24:43;94950.09;;;19.24;100.00
40650;BME280;26342;42.826;23.992;2023-07-20T02:27:08;94951.34;;;19.27;100.00
40650;BME280;26342;42.826;23.992;2023-07-20T02:29:33;94957.06;;;19.25;100.00
40650;BME280;26342;42.826;23.992;2023-07-20T02:31:59;94963.78;;;19.19;100.00
40650;BME280;26342;42.826;23.992;2023-07-20T02:34:24;94966.19;;;19.21;100.00
40650;BME280;26342;42.826;23.992;2023-07-20T02:36:50;94959.75;;;19.34;100.00
40650;BME280;26342;42.826;23.992;2023-07-20T02:39:15;94948.00;;;19.39;100.00
40650;BME280;26342;42.826;23.992;2023-07-20T02:41:41;94952.75;;;19.42;100.00
40650;BME280;26342;42.826;23.992;2023-07-20T02:44:06;94959.94;;;19.38;100.00
40650;BME280;26342;42.826;23.992;2023-07-20T02:46:32;94956.47;;;19.11;100.00
40650;BME280;26342;42.826;23.992;2023-07-20T02:48:57;94966.63;;;19.23;100.00
40650;BME280;26342;42.826;23.992;2023-07-20T02:51:23;94970.13;;;19.32;100.00
40650;BME280;26342;42.826;23.992;2023-07-20T02:53:48;94976.16;;;19.38;100.00
40650;BME280;26342;42.826;23.992;2023-07-20T02:56:14;94951.50;;;19.31;100.00
40650;BME280;26342;42.826;23.992;2023-07-20T02:58:41;94952.63;;;19.30;100.00
40650;BME280;26342;42.826;23.992;2023-07-20T03:01:11;94967.06;;;19.42;100.00
40650;BME280;26342;42.826;23.992;2023-07-20T03:03:38;94953.09;;;19.32;100.00
40650;BME280;26342;42.826;23.992;2023-07-20T03:06:04;94958.06;;;19.21;100.00
40650;BME280;26342;42.826;23.992;2023-07-20T03:08:29;94965.53;;;19.15;100.00
40650;BME280;26342;42.826;23.992;2023-07-20T03:10:55;94971.91;;;19.11;100.00
40650;BME280;26342;42.826;23.992;2023-07-20T03:13:21;94968.41;;;19.10;100.00
40650;BME280;26342;42.826;23.992;2023-07-20T03:15:46;94977.63;;;19.09;100.00
40650;BME280;26342;42.826;23.992;2023-07-20T03:18:12;94984.78;;;19.22;100.00
40650;BME280;26342;42.826;23.992;2023-07-20T03:20:38;94988.91;;;19.29;100.00
40650;BME280;26342;42.826;23.992;2023-07-20T03:23:03;94991.28;;;19.30;100.00
40650;BME280;26342;42.826;23.992;2023-07-20T03:25:29;94983.53;;;19.20;100.00
40650;BME280;26342;42.826;23.992;2023-07-20T03:27:54;94988.31;;;19.06;100.00
40650;BME280;26342;42.826;23.992;2023-07-20T03:30:20;94971.91;;;19.02;100.00
40650;BME280;26342;42.826;23.992;2023-07-20T03:32:46;94983.34;;;19.16;100.00
40650;BME280;26342;42.826;23.992;2023-07-20T03:35:11;94991.31;;;19.21;100.00
40650;BME280;26342;42.826;23.992;2023-07-20T03:37:37;94989.22;;;19.18;100.00
40650;BME280;26342;42.826;23.992;2023-07-20T03:40:03;94993.38;;;19.24;100.00
40650;BME280;26342;42.826;23.992;2023-07-20T03:42:30;94977.94;;;19.16;100.00
40650;BME280;26342;42.826;23.992;2023-07-20T03:44:55;94983.38;;;18.99;100.00
40650;BME280;26342;42.826;23.992;2023-07-20T03:47:21;94978.91;;;19.03;100.00
40650;BME280;26342;42.826;23.992;2023-07-20T03:49:47;94982.88;;;19.14;100.00
40650;BME280;26342;42.826;23.992;2023-07-20T03:52:12;94967.97;;;18.82;100.00
40650;BME280;26342;42.826;23.992;2023-07-20T03:54:38;94973.84;;;18.67;100.00
40650;BME280;26342;42.826;23.992;2023-07-20T03:57:03;94980.69;;;18.82;100.00
40650;BME280;26342;42.826;23.992;2023-07-20T03:59:29;94982.59;;;18.81;100.00
40650;BME280;26342;42.826;23.992;2023-07-20T04:01:54;94978.28;;;18.89;100.00
40650;BME280;26342;42.826;23.992;2023-07-20T04:04:20;94958.09;;;18.78;100.00
40650;BME280;26342;42.826;23.992;2023-07-20T04:06:46;94967.00;;;18.69;100.00
40650;BME280;26342;42.826;23.992;2023-07-20T04:09:12;94968.09;;;18.77;100.00
40650;BME280;26342;42.826;23.992;2023-07-20T04:11:38;94973.50;;;19.03;100.00
40650;BME280;26342;42.826;23.992;2023-07-20T04:14:03;94972.38;;;19.21;100.00
40650;BME280;26342;42.826;23.992;2023-07-20T04:16:29;94971.75;;;19.07;100.00
40650;BME280;26342;42.826;23.992;2023-07-20T04:18:55;94979.56;;;18.91;100.00
40650;BME280;26342;42.826;23.992;2023-07-20T04:21:22;94987.34;;;18.84;100.00
40650;BME280;26342;42.826;23.992;2023-07-20T04:23:48;94985.44;;;18.85;100.00
40650;BME280;26342;42.826;23.992;2023-07-20T04:26:13;94975.09;;;19.04;100.00
40650;BME280;26342;42.826;23.992;2023-07-20T04:28:40;94974.28;;;19.21;100.00
40650;BME280;26342;42.826;23.992;2023-07-20T04:31:14;94970.28;;;19.27;100.00
40650;BME280;26342;42.826;23.992;2023-07-20T04:33:40;94969.16;;;19.37;100.00
40650;BME280;26342;42.826;23.992;2023-07-20T04:36:06;94956.41;;;19.46;100.00
40650;BME280;26342;42.826;23.992;2023-07-20T04:38:32;94965.19;;;19.34;100.00
40650;BME280;26342;42.826;23.992;2023-07-20T04:40:58;94969.81;;;19.25;100.00
40650;BME280;26342;42.826;23.992;2023-07-20T04:43:23;94962.03;;;19.23;100.00
40650;BME280;26342;42.826;23.992;2023-07-20T04:45:49;94963.16;;;19.14;100.00
40650;BME280;26342;42.826;23.992;2023-07-20T04:48:16;94957.28;;;19.12;100.00
40650;BME280;26342;42.826;23.992;2023-07-20T04:50:43;94946.59;;;19.15;100.00
40650;BME280;26342;42.826;23.992;2023-07-20T04:53:10;94953.75;;;19.29;100.00
40650;BME280;26342;42.826;23.992;2023-07-20T04:55:37;94946.44;;;19.29;100.00
40650;BME280;26342;42.826;23.992;2023-07-20T04:58:03;94948.66;;;19.36;100.00
40650;BME280;26342;42.826;23.992;2023-07-20T05:00:29;94938.59;;;19.45;100.00
40650;BME280;26342;42.826;23.992;2023-07-20T05:02:56;94944.63;;;19.59;100.00
40650;BME280;26342;42.826;23.992;2023-07-20T05:05:21;94952.53;;;19.64;100.00
40650;BME280;26342;42.826;23.992;2023-07-20T05:07:47;94951.06;;;19.84;100.00
40650;BME280;26342;42.826;23.992;2023-07-20T05:10:13;94951.41;;;20.03;100.00
40650;BME280;26342;42.826;23.992;2023-07-20T05:12:38;94945.13;;;20.20;100.00
40650;BME280;26342;42.826;23.992;2023-07-20T05:15:04;94944.22;;;20.37;100.00
40650;BME280;26342;42.826;23.992;2023-07-20T05:17:29;94942.88;;;20.52;100.00
40650;BME280;26342;42.826;23.992;2023-07-20T05:19:55;94944.66;;;20.48;100.00
40650;BME280;26342;42.826;23.992;2023-07-20T05:22:20;94939.91;;;20.66;100.00
40650;BME280;26342;42.826;23.992;2023-07-20T05:24:46;94940.09;;;20.81;100.00
40650;BME280;26342;42.826;23.992;2023-07-20T05:27:11;94938.09;;;20.90;100.00
40650;BME280;26342;42.826;23.992;2023-07-20T05:29:37;94918.25;;;20.99;100.00
40650;BME280;26342;42.826;23.992;2023-07-20T05:32:03;94927.94;;;21.21;100.00
40650;BME280;26342;42.826;23.992;2023-07-20T05:34:28;94925.16;;;21.08;100.00
40650;BME280;26342;42.826;23.992;2023-07-20T05:37:10;94928.81;;;21.12;100.00
40650;BME280;26342;42.826;23.992;2023-07-20T05:39:35;94928.66;;;21.30;100.00
40650;BME280;26342;42.826;23.992;2023-07-20T05:42:01;94909.72;;;21.42;100.00
40650;BME280;26342;42.826;23.992;2023-07-20T05:44:26;94896.78;;;21.39;100.00
40650;BME280;26342;42.826;23.992;2023-07-20T05:46:52;94898.97;;;21.58;100.00
40650;BME280;26342;42.826;23.992;2023-07-20T05:49:17;94892.66;;;21.78;100.00
40650;BME280;26342;42.826;23.992;2023-07-20T05:51:42;94896.94;;;22.03;100.00
40650;BME280;26342;42.826;23.992;2023-07-20T05:54:08;94897.63;;;22.00;100.00
40650;BME280;26342;42.826;23.992;2023-07-20T05:56:33;94899.34;;;22.17;100.00
40650;BME280;26342;42.826;23.992;2023-07-20T05:58:59;94894.34;;;22.32;100.00
40650;BME280;26342;42.826;23.992;2023-07-20T06:01:24;94900.09;;;22.42;100.00
40650;BME280;26342;42.826;23.992;2023-07-20T06:03:52;94906.44;;;22.46;100.00
40650;BME280;26342;42.826;23.992;2023-07-20T06:06:18;94915.16;;;22.52;100.00
40650;BME280;26342;42.826;23.992;2023-07-20T06:08:44;94911.59;;;22.64;100.00
40650;BME280;26342;42.826;23.992;2023-07-20T06:11:09;94907.16;;;22.71;100.00
40650;BME280;26342;42.826;23.992;2023-07-20T06:13:35;94917.22;;;22.83;100.00
40650;BME280;26342;42.826;23.992;2023-07-20T06:16:00;94918.97;;;23.03;100.00
40650;BME280;26342;42.826;23.992;2023-07-20T06:18:26;94907.41;;;23.22;100.00
40650;BME280;26342;42.826;23.992;2023-07-20T06:20:52;94920.97;;;23.34;100.00
40650;BME280;26342;42.826;23.992;2023-07-20T06:23:19;94923.78;;;23.54;100.00
40650;BME280;26342;42.826;23.992;2023-07-20T06:25:45;94917.09;;;23.79;100.00
40650;BME280;26342;42.826;23.992;2023-07-20T06:28:12;94913.75;;;24.02;100.00
40650;BME280;26342;42.826;23.992;2023-07-20T06:30:38;94916.97;;;24.23;100.00
40650;BME280;26342;42.826;23.992;2023-07-20T06:33:03;94911.13;;;24.24;100.00
40650;BME280;26342;42.826;23.992;2023-07-20T06:35:29;94915.81;;;24.40;100.00
40650;BME280;26342;42.826;23.992;2023-07-20T06:37:54;94916.28;;;24.61;100.00
40650;BME280;26342;42.826;23.992;2023-07-20T06:40:21;94912.28;;;24.74;100.00
40650;BME280;26342;42.826;23.992;2023-07-20T06:42:46;94912.22;;;24.90;100.00
40650;BME280;26342;42.826;23.992;2023-07-20T06:45:11;94906.19;;;25.00;100.00
40650;BME280;26342;42.826;23.992;2023-07-20T06:47:39;94919.25;;;24.91;100.00
40650;BME280;26342;42.826;23.992;2023-07-20T06:50:06;94917.63;;;25.06;100.00
40650;BME280;26342;42.826;23.992;2023-07-20T06:52:32;94907.31;;;25.38;100.00
40650;BME280;26342;42.826;23.992;2023-07-20T06:54:57;94908.53;;;25.64;100.00
40650;BME280;26342;42.826;23.992;2023-07-20T06:57:22;94912.06;;;25.83;100.00
40650;BME280;26342;42.826;23.992;2023-07-20T06:59:48;94901.94;;;25.87;100.00
40650;BME280;26342;42.826;23.992;2023-07-20T07:02:14;94913.75;;;26.18;100.00
40650;BME280;26342;42.826;23.992;2023-07-20T07:04:41;94900.31;;;26.32;100.00
40650;BME280;26342;42.826;23.992;2023-07-20T07:07:06;94913.88;;;26.52;100.00
40650;BME280;26342;42.826;23.992;2023-07-20T07:09:32;94908.25;;;26.67;100.00
40650;BME280;26342;42.826;23.992;2023-07-20T07:11:58;94904.91;;;26.81;100.00
40650;BME280;26342;42.826;23.992;2023-07-20T07:14:24;94912.13;;;26.96;100.00
40650;BME280;26342;42.826;23.992;2023-07-20T07:16:49;94914.03;;;27.22;100.00
40650;BME280;26342;42.826;23.992;2023-07-20T07:19:14;94909.03;;;27.32;100.00
40650;BME280;26342;42.826;23.992;2023-07-20T07:21:40;94923.19;;;27.34;100.00
40650;BME280;26342;42.826;23.992;2023-07-20T07:24:06;94928.00;;;27.47;100.00
40650;BME280;26342;42.826;23.992;2023-07-20T07:26:33;94928.47;;;27.53;100.00
40650;BME280;26342;42.826;23.992;2023-07-20T07:28:58;94929.34;;;27.64;100.00
40650;BME280;26342;42.826;23.992;2023-07-20T07:31:28;94926.28;;;27.69;100.00
40650;BME280;26342;42.826;23.992;2023-07-20T07:33:54;94938.25;;;27.91;100.00
40650;BME280;26342;42.826;23.992;2023-07-20T07:36:20;94934.78;;;27.98;100.00
40650;BME280;26342;42.826;23.992;2023-07-20T07:38:45;94944.59;;;28.02;100.00
40650;BME280;26342;42.826;23.992;2023-07-20T07:41:11;94951.78;;;28.14;100.00
40650;BME280;26342;42.826;23.992;2023-07-20T07:43:37;94949.75;;;28.07;100.00
40650;BME280;26342;42.826;23.992;2023-07-20T07:46:04;94956.09;;;28.19;100.00
40650;BME280;26342;42.826;23.992;2023-07-20T07:48:29;94956.47;;;28.14;100.00
40650;BME280;26342;42.826;23.992;2023-07-20T07:50:55;94962.53;;;28.30;100.00
40650;BME280;26342;42.826;23.992;2023-07-20T07:53:20;94967.13;;;28.26;100.00
40650;BME280;26342;42.826;23.992;2023-07-20T07:55:49;94972.88;;;28.10;100.00
40650;BME280;26342;42.826;23.992;2023-07-20T07:58:14;94982.19;;;27.98;100.00
40650;BME280;26342;42.826;23.992;2023-07-20T08:00:40;94979.47;;;27.98;100.00
40650;BME280;26342;42.826;23.992;2023-07-20T08:03:08;94982.84;;;27.85;100.00
40650;BME280;26342;42.826;23.992;2023-07-20T08:05:34;94985.91;;;27.76;100.00
40650;BME280;26342;42.826;23.992;2023-07-20T08:08:01;94981.41;;;27.64;100.00
40650;BME280;26342;42.826;23.992;2023-07-20T08:10:29;94992.66;;;27.52;100.00
40650;BME280;26342;42.826;23.992;2023-07-20T08:12:54;94990.63;;;27.45;100.00
40650;BME280;26342;42.826;23.992;2023-07-20T08:15:20;95000.00;;;27.44;100.00
40650;BME280;26342;42.826;23.992;2023-07-20T08:17:45;95011.25;;;27.36;100.00
40650;BME280;26342;42.826;23.992;2023-07-20T08:20:12;95013.53;;;27.30;100.00
40650;BME280;26342;42.826;23.992;2023-07-20T08:22:38;95016.63;;;27.29;100.00
40650;BME280;26342;42.826;23.992;2023-07-20T08:25:05;95022.81;;;27.22;100.00
40650;BME280;26342;42.826;23.992;2023-07-20T08:27:31;95016.22;;;27.26;100.00
40650;BME280;26342;42.826;23.992;2023-07-20T08:29:56;95018.63;;;27.32;100.00
40650;BME280;26342;42.826;23.992;2023-07-20T08:32:22;95027.00;;;27.42;100.00
40650;BME280;26342;42.826;23.992;2023-07-20T08:34:47;95034.03;;;27.43;100.00
40650;BME280;26342;42.826;23.992;2023-07-20T08:37:13;95046.75;;;27.59;100.00
40650;BME280;26342;42.826;23.992;2023-07-20T08:39:38;95037.09;;;27.68;98.93
40650;BME280;26342;42.826;23.992;2023-07-20T08:42:04;95036.03;;;27.80;100.00
40650;BME280;26342;42.826;23.992;2023-07-20T08:44:34;95056.16;;;27.91;97.41
40650;BME280;26342;42.826;23.992;2023-07-20T08:47:01;95054.53;;;27.87;94.91
40650;BME280;26342;42.826;23.992;2023-07-20T08:49:30;95052.00;;;28.04;100.00
40650;BME280;26342;42.826;23.992;2023-07-20T08:51:57;95046.63;;;28.15;100.00
40650;BME280;26342;42.826;23.992;2023-07-20T08:54:23;95053.06;;;28.30;96.26
40650;BME280;26342;42.826;23.992;2023-07-20T08:56:49;95041.75;;;28.39;96.14
40650;BME280;26342;42.826;23.992;2023-07-20T08:59:17;95049.63;;;28.44;98.48
40650;BME280;26342;42.826;23.992;2023-07-20T09:01:44;95046.22;;;28.54;100.00
40650;BME280;26342;42.826;23.992;2023-07-20T09:04:10;95031.38;;;28.62;96.88
40650;BME280;26342;42.826;23.992;2023-07-20T09:06:36;95031.81;;;28.68;94.83
40650;BME280;26342;42.826;23.992;2023-07-20T09:09:01;95040.00;;;28.60;90.38
40650;BME280;26342;42.826;23.992;2023-07-20T09:11:27;95045.94;;;28.70;88.13
40650;BME280;26342;42.826;23.992;2023-07-20T09:14:22;95050.72;;;28.80;91.37
40650;BME280;26342;42.826;23.992;2023-07-20T09:16:50;95040.06;;;28.75;88.59
40650;BME280;26342;42.826;23.992;2023-07-20T09:19:16;95050.38;;;28.85;91.68
40650;BME280;26342;42.826;23.992;2023-07-20T09:21:49;95035.53;;;28.93;93.30
40650;BME280;26342;42.826;23.992;2023-07-20T09:24:17;95030.91;;;29.04;90.54
40650;BME280;26342;42.826;23.992;2023-07-20T09:26:43;95036.03;;;29.13;85.82
40650;BME280;26342;42.826;23.992;2023-07-20T09:29:10;95031.69;;;29.05;84.22
40650;BME280;26342;42.826;23.992;2023-07-20T09:31:36;95030.19;;;29.18;87.41
40650;BME280;26342;42.826;23.992;2023-07-20T09:34:01;95014.16;;;29.31;93.68
40650;BME280;26342;42.826;23.992;2023-07-20T09:36:27;95021.66;;;29.37;88.60
40650;BME280;26342;42.826;23.992;2023-07-20T09:38:53;95016.19;;;29.41;88.43
40650;BME280;26342;42.826;23.992;2023-07-20T09:41:19;95011.84;;;29.40;90.71
40650;BME280;26342;42.826;23.992;2023-07-20T09:43:45;95019.72;;;29.41;91.77
40650;BME280;26342;42.826;23.992;2023-07-20T09:46:11;95013.81;;;29.39;90.48
40650;BME280;26342;42.826;23.992;2023-07-20T09:48:37;95015.09;;;29.56;86.73
40650;BME280;26342;42.826;23.992;2023-07-20T09:51:03;95019.81;;;29.59;84.27
40650;BME280;26342;42.826;23.992;2023-07-20T09:53:29;95008.03;;;29.62;85.74
40650;BME280;26342;42.826;23.992;2023-07-20T09:55:57;95011.56;;;29.59;82.61
40650;BME280;26342;42.826;23.992;2023-07-20T09:58:25;95010.38;;;29.60;85.43
40650;BME280;26342;42.826;23.992;2023-07-20T10:00:52;95008.47;;;29.71;83.05
40650;BME280;26342;42.826;23.992;2023-07-20T10:03:21;95006.53;;;29.86;81.50
40650;BME280;26342;42.826;23.992;2023-07-20T10:06:00;95005.38;;;29.91;77.98
40650;BME280;26342;42.826;23.992;2023-07-20T10:08:26;95002.59;;;29.91;84.07
40650;BME280;26342;42.826;23.992;2023-07-20T10:10:53;95004.97;;;29.92;79.34
40650;BME280;26342;42.826;23.992;2023-07-20T10:13:25;95004.19;;;29.92;79.11
40650;BME280;26342;42.826;23.992;2023-07-20T10:15:54;95014.03;;;30.03;80.08
40650;BME280;26342;42.826;23.992;2023-07-20T10:18:29;94995.53;;;29.79;77.04
40650;BME280;26342;42.826;23.992;2023-07-20T10:20:56;94990.03;;;29.79;77.46
40650;BME280;26342;42.826;23.992;2023-07-20T10:23:22;94988.44;;;29.78;76.96
40650;BME280;26342;42.826;23.992;2023-07-20T10:25:50;94986.09;;;29.80;78.58
40650;BME280;26342;42.826;23.992;2023-07-20T10:28:16;94979.03;;;29.90;72.67
40650;BME280;26342;42.826;23.992;2023-07-20T10:30:42;94975.13;;;29.98;81.47
40650;BME280;26342;42.826;23.992;2023-07-20T10:33:08;94965.28;;;29.90;76.71
40650;BME280;26342;42.826;23.992;2023-07-20T10:38:18;94980.19;;;29.71;76.43
40650;BME280;26342;42.826;23.992;2023-07-20T10:40:54;94984.91;;;29.70;76.26
40650;BME280;26342;42.826;23.992;2023-07-20T10:43:19;94970.31;;;29.59;75.74
40650;BME280;26342;42.826;23.992;2023-07-20T10:45:53;94960.50;;;29.55;74.68
40650;BME280;26342;42.826;23.992;2023-07-20T10:50:45;94939.69;;;29.61;76.32
40650;BME280;26342;42.826;23.992;2023-07-20T10:53:18;94935.34;;;29.53;77.48
40650;BME280;26342;42.826;23.992;2023-07-20T10:55:43;94931.75;;;29.45;81.05
40650;BME280;26342;42.826;23.992;2023-07-20T10:58:11;94926.63;;;29.36;79.48
40650;BME280;26342;42.826;23.992;2023-07-20T11:01:03;94918.38;;;29.33;80.83
40650;BME280;26342;42.826;23.992;2023-07-20T11:03:39;94918.44;;;29.47;81.85
40650;BME280;26342;42.826;23.992;2023-07-20T11:09:05;94926.00;;;29.79;86.60
40650;BME280;26342;42.826;23.992;2023-07-20T11:11:34;94919.31;;;29.80;79.97
40650;BME280;26342;42.826;23.992;2023-07-20T11:14:05;94917.72;;;29.93;83.01
40650;BME280;26342;42.826;23.992;2023-07-20T11:19:04;94910.28;;;30.04;76.21
40650;BME280;26342;42.826;23.992;2023-07-20T11:21:36;94897.31;;;29.97;77.40
40650;BME280;26342;42.826;23.992;2023-07-20T11:24:06;94889.44;;;30.07;80.06
40650;BME280;26342;42.826;23.992;2023-07-20T11:26:46;94875.34;;;30.12;72.69
40650;BME280;26342;42.826;23.992;2023-07-20T11:29:13;94875.69;;;30.17;74.98
40650;BME280;26342;42.826;23.992;2023-07-20T11:31:40;94862.31;;;30.30;80.23
40650;BME280;26342;42.826;23.992;2023-07-20T11:34:09;94852.13;;;30.27;79.29
40650;BME280;26342;42.826;23.992;2023-07-20T11:36:35;94853.28;;;30.33;76.17
40650;BME280;26342;42.826;23.992;2023-07-20T11:39:01;94839.94;;;30.14;76.73
40650;BME280;26342;42.826;23.992;2023-07-20T11:41:29;94843.88;;;30.09;78.99
40650;BME280;26342;42.826;23.992;2023-07-20T11:43:55;94833.66;;;30.10;81.91
40650;BME280;26342;42.826;23.992;2023-07-20T11:46:22;94835.22;;;30.00;81.88
40650;BME280;26342;42.826;23.992;2023-07-20T11:48:47;94835.22;;;30.03;81.62
40650;BME280;26342;42.826;23.992;2023-07-20T11:51:14;94824.63;;;30.09;83.56
40650;BME280;26342;42.826;23.992;2023-07-20T11:53:40;94819.09;;;30.23;89.14
40650;BME280;26342;42.826;23.992;2023-07-20T11:56:06;94820.66;;;30.17;78.31
40650;BME280;26342;42.826;23.992;2023-07-20T11:58:32;94808.47;;;30.08;81.97
40650;BME280;26342;42.826;23.992;2023-07-20T12:00:57;94805.38;;;30.13;80.89
40650;BME280;26342;42.826;23.992;2023-07-20T12:03:22;94799.03;;;30.23;85.25
40650;BME280;26342;42.826;23.992;2023-07-20T12:05:48;94795.88;;;30.24;79.50
40650;BME280;26342;42.826;23.992;2023-07-20T12:08:15;94796.63;;;30.39;80.46
40650;BME280;26342;42.826;23.992;2023-07-20T12:10:41;94797.84;;;30.42;84.06
40650;BME280;26342;42.826;23.992;2023-07-20T12:13:09;94793.88;;;30.39;83.28
40650;BME280;26342;42.826;23.992;2023-07-20T12:15:36;94792.28;;;30.49;83.36
40650;BME280;26342;42.826;23.992;2023-07-20T12:18:03;94787.56;;;30.53;76.59
40650;BME280;26342;42.826;23.992;2023-07-20T12:20:34;94793.47;;;30.51;78.37
40650;BME280;26342;42.826;23.992;2023-07-20T12:23:12;94791.88;;;30.57;82.13
40650;BME280;26342;42.826;23.992;2023-07-20T12:25:42;94795.44;;;30.51;83.12
40650;BME280;26342;42.826;23.992;2023-07-20T12:28:19;94792.28;;;30.49;80.39
40650;BME280;26342;42.826;23.992;2023-07-20T12:30:46;94782.06;;;30.49;80.16
40650;BME280;26342;42.826;23.992;2023-07-20T12:33:14;94766.72;;;30.48;78.95
40650;BME280;26342;42.826;23.992;2023-07-20T12:35:40;94771.41;;;30.58;81.58
40650;BME280;26342;42.826;23.992;2023-07-20T12:38:06;94768.63;;;30.69;76.64
40650;BME280;26342;42.826;23.992;2023-07-20T12:40:32;94773.75;;;30.71;72.12
40650;BME280;26342;42.826;23.992;2023-07-20T12:42:57;94766.66;;;30.73;75.12
40650;BME280;26342;42.826;23.992;2023-07-20T12:45:23;94765.81;;;30.80;76.37
40650;BME280;26342;42.826;23.992;2023-07-20T12:47:49;94783.09;;;30.91;74.58
40650;BME280;26342;42.826;23.992;2023-07-20T12:50:14;94779.59;;;30.80;75.44
40650;BME280;26342;42.826;23.992;2023-07-20T12:52:40;94769.75;;;30.79;76.62
40650;BME280;26342;42.826;23.992;2023-07-20T12:55:08;94785.47;;;30.85;74.83
40650;BME280;26342;42.826;23.992;2023-07-20T12:57:34;94784.69;;;30.85;75.63
40650;BME280;26342;42.826;23.992;2023-07-20T13:00:01;94771.75;;;30.82;73.19
40650;BME280;26342;42.826;23.992;2023-07-20T13:02:30;94757.97;;;30.82;71.46